sensor_id;sensor_type;location;lat;lon;timestamp;pressure;altitude;pressure_sealevel;temperature;humidity
22862;BME280;11598;50.652;6.172;2023-01-27T00:02:40;96950.00;;;-0.15;100.00
22862;BME280;11598;50.652;6.172;2023-01-27T00:12:42;96958.50;;;-0.14;100.00
22862;BME280;11598;50.652;6.172;2023-01-27T00:23:01;96949.16;;;-0.14;100.00
22862;BME280;11598;50.652;6.172;2023-01-27T00:33:20;96949.16;;;-0.15;100.00
22862;BME280;11598;50.652;6.172;2023-01-27T00:43:26;96954.28;;;-0.15;100.00
22862;BME280;11598;50.652;6.172;2023-01-27T00:53:27;96950.91;;;-0.17;100.00
22862;BME280;11598;50.652;6.172;2023-01-27T01:03:29;96951.84;;;-0.20;100.00
22862;BME280;11598;50.652;6.172;2023-01-27T01:13:32;96960.44;;;-0.24;100.00
22862;BME280;11598;50.652;6.172;2023-01-27T01:23:36;96960.53;;;-0.29;100.00
22862;BME280;11598;50.652;6.172;2023-01-27T01:33:37;96960.66;;;-0.33;100.00
22862;BME280;11598;50.652;6.172;2023-01-27T01:43:38;96968.47;;;-0.39;100.00
22862;BME280;11598;50.652;6.172;2023-01-27T02:03:56;96970.38;;;-0.49;100.00
22862;BME280;11598;50.652;6.172;2023-01-27T02:14:01;96962.88;;;-0.57;100.00
22862;BME280;11598;50.652;6.172;2023-01-27T02:24:03;96975.69;;;-0.58;100.00
22862;BME280;11598;50.652;6.172;2023-01-27T02:34:15;96972.34;;;-0.60;100.00
22862;BME280;11598;50.652;6.172;2023-01-27T02:44:16;96971.53;;;-0.62;100.00
22862;BME280;11598;50.652;6.172;2023-01-27T02:54:16;96971.53;;;-0.64;100.00
22862;BME280;11598;50.652;6.172;2023-01-27T03:04:16;96970.81;;;-0.69;100.00
22862;BME280;11598;50.652;6.172;2023-01-27T03:14:17;96980.22;;;-0.71;100.00
22862;BME280;11598;50.652;6.172;2023-01-27T03:24:18;96975.19;;;-0.74;100.00
22862;BME280;11598;50.652;6.172;2023-01-27T03:34:18;96976.94;;;-0.78;100.00
22862;BME280;11598;50.652;6.172;2023-01-27T03:44:18;96975.25;;;-0.77;100.00
22862;BME280;11598;50.652;6.172;2023-01-27T03:54:37;96979.50;;;-0.78;100.00
22862;BME280;11598;50.652;6.172;2023-01-27T04:04:38;96992.28;;;-0.79;100.00
22862;BME280;11598;50.652;6.172;2023-01-27T04:14:57;97001.69;;;-0.81;100.00
22862;BME280;11598;50.652;6.172;2023-01-27T04:24:57;97008.56;;;-0.85;100.00
22862;BME280;11598;50.652;6.172;2023-01-27T04:34:57;97016.53;;;-1.00;100.00
22862;BME280;11598;50.652;6.172;2023-01-27T04:44:58;97017.56;;;-1.11;100.00
22862;BME280;11598;50.652;6.172;2023-01-27T04:54:58;97022.94;;;-1.24;100.00
22862;BME280;11598;50.652;6.172;2023-01-27T05:04:58;97034.78;;;-1.22;100.00
22862;BME280;11598;50.652;6.172;2023-01-27T05:14:59;97040.75;;;-1.23;100.00
22862;BME280;11598;50.652;6.172;2023-01-27T05:24:59;97044.97;;;-1.22;100.00
22862;BME280;11598;50.652;6.172;2023-01-27T05:35:00;97046.66;;;-1.22;100.00
22862;BME280;11598;50.652;6.172;2023-01-27T05:45:00;97056.91;;;-1.24;100.00
22862;BME280;11598;50.652;6.172;2023-01-27T05:55:00;97050.91;;;-1.21;100.00
22862;BME280;11598;50.652;6.172;2023-01-27T06:05:01;97050.91;;;-1.20;100.00
22862;BME280;11598;50.652;6.172;2023-01-27T06:15:01;97060.22;;;-1.20;100.00
22862;BME280;11598;50.652;6.172;2023-01-27T06:25:02;97050.00;;;-1.17;100.00
22862;BME280;11598;50.652;6.172;2023-01-27T06:35:03;97051.69;;;-1.18;100.00
22862;BME280;11598;50.652;6.172;2023-01-27T06:45:04;97069.50;;;-1.16;100.00
22862;BME280;11598;50.652;6.172;2023-01-27T06:55:05;97081.44;;;-1.18;100.00
22862;BME280;11598;50.652;6.172;2023-01-27T07:05:05;97090.78;;;-1.17;100.00
22862;BME280;11598;50.652;6.172;2023-01-27T07:15:08;97091.63;;;-1.17;100.00
22862;BME280;11598;50.652;6.172;2023-01-27T07:25:08;97108.59;;;-1.16;100.00
22862;BME280;11598;50.652;6.172;2023-01-27T07:35:09;97114.50;;;-1.12;100.00
22862;BME280;11598;50.652;6.172;2023-01-27T07:45:09;97122.09;;;-1.09;100.00
22862;BME280;11598;50.652;6.172;2023-01-27T07:55:10;97116.97;;;-1.08;100.00
22862;BME280;11598;50.652;6.172;2023-01-27T08:05:10;97117.75;;;-1.04;100.00
22862;BME280;11598;50.652;6.172;2023-01-27T08:15:11;97127.03;;;-1.01;100.00
22862;BME280;11598;50.652;6.172;2023-01-27T08:25:11;97127.84;;;-0.98;100.00
22862;BME280;11598;50.652;6.172;2023-01-27T08:35:12;97126.94;;;-0.94;100.00
22862;BME280;11598;50.652;6.172;2023-01-27T08:45:12;97129.41;;;-0.91;100.00
22862;BME280;11598;50.652;6.172;2023-01-27T08:55:13;97136.97;;;-0.86;100.00
22862;BME280;11598;50.652;6.172;2023-01-27T09:05:14;97140.31;;;-0.82;100.00
22862;BME280;11598;50.652;6.172;2023-01-27T09:15:16;97147.03;;;-0.77;100.00
22862;BME280;11598;50.652;6.172;2023-01-27T09:25:17;97153.75;;;-0.73;100.00
22862;BME280;11598;50.652;6.172;2023-01-27T09:35:17;97158.78;;;-0.70;100.00
22862;BME280;11598;50.652;6.172;2023-01-27T09:55:46;97161.94;;;-0.55;100.00
22862;BME280;11598;50.652;6.172;2023-01-27T10:57:28;97186.22;;;-0.36;100.00
22862;BME280;11598;50.652;6.172;2023-01-27T11:07:31;97182.81;;;-0.35;100.00
22862;BME280;11598;50.652;6.172;2023-01-27T11:17:46;97191.97;;;-0.26;100.00
22862;BME280;11598;50.652;6.172;2023-01-27T11:28:13;97172.28;;;-0.19;100.00
22862;BME280;11598;50.652;6.172;2023-01-27T11:38:19;97160.31;;;-0.17;100.00
22862;BME280;11598;50.652;6.172;2023-01-27T11:48:19;97174.75;;;-0.15;100.00
22862;BME280;11598;50.652;6.172;2023-01-27T11:58:33;97164.41;;;-0.09;100.00
22862;BME280;11598;50.652;6.172;2023-01-27T12:08:36;97155.81;;;-0.05;100.00
22862;BME280;11598;50.652;6.172;2023-01-27T12:19:14;97140.44;;;-0.03;100.00
22862;BME280;11598;50.652;6.172;2023-01-27T12:29:14;97145.59;;;-0.05;100.00
22862;BME280;11598;50.652;6.172;2023-01-27T12:49:33;97123.34;;;0.01;100.00
22862;BME280;11598;50.652;6.172;2023-01-27T12:59:34;97127.47;;;0.06;100.00
22862;BME280;11598;50.652;6.172;2023-01-27T13:09:55;97119.00;;;0.04;100.00
22862;BME280;11598;50.652;6.172;2023-01-27T13:19:59;97120.63;;;0.08;100.00
22862;BME280;11598;50.652;6.172;2023-01-27T13:30:26;97131.66;;;0.09;100.00
22862;BME280;11598;50.652;6.172;2023-01-27T13:40:30;97140.06;;;0.14;100.00
22862;BME280;11598;50.652;6.172;2023-01-27T13:50:37;97139.31;;;0.10;100.00
22862;BME280;11598;50.652;6.172;2023-01-27T14:01:24;97140.97;;;0.11;100.00
22862;BME280;11598;50.652;6.172;2023-01-27T14:11:36;97147.88;;;0.08;100.00
22862;BME280;11598;50.652;6.172;2023-01-27T14:22:33;97150.47;;;0.06;100.00
22862;BME280;11598;50.652;6.172;2023-01-27T14:42:34;97165.88;;;0.03;100.00
22862;BME280;11598;50.652;6.172;2023-01-27T14:52:48;97168.41;;;0.03;100.00
22862;BME280;11598;50.652;6.172;2023-01-27T15:34:26;97212.84;;;-0.04;100.00
22862;BME280;11598;50.652;6.172;2023-01-27T15:44:34;97218.00;;;-0.07;100.00
22862;BME280;11598;50.652;6.172;2023-01-27T15:54:39;97226.63;;;-0.11;100.00
22862;BME280;11598;50.652;6.172;2023-01-27T16:04:40;97234.38;;;-0.16;100.00
22862;BME280;11598;50.652;6.172;2023-01-27T16:14:42;97251.53;;;-0.24;100.00
22862;BME280;11598;50.652;6.172;2023-01-27T16:25:00;97261.81;;;-0.27;100.00
22862;BME280;11598;50.652;6.172;2023-01-27T16:35:16;97273.75;;;-0.28;100.00
22862;BME280;11598;50.652;6.172;2023-01-27T16:45:19;97278.84;;;-0.28;100.00
22862;BME280;11598;50.652;6.172;2023-01-27T16:55:20;97281.41;;;-0.28;100.00
22862;BME280;11598;50.652;6.172;2023-01-27T17:05:25;97282.31;;;-0.32;100.00
22862;BME280;11598;50.652;6.172;2023-01-27T17:15:34;97298.53;;;-0.34;100.00
22862;BME280;11598;50.652;6.172;2023-01-27T17:25:37;97294.34;;;-0.38;100.00
22862;BME280;11598;50.652;6.172;2023-01-27T17:35:38;97309.66;;;-0.38;100.00
22862;BME280;11598;50.652;6.172;2023-01-27T17:45:40;97312.22;;;-0.38;100.00
22862;BME280;11598;50.652;6.172;2023-01-27T17:55:42;97321.66;;;-0.42;100.00
22862;BME280;11598;50.652;6.172;2023-01-27T18:05:44;97321.69;;;-0.45;100.00
22862;BME280;11598;50.652;6.172;2023-01-27T18:16:01;97331.13;;;-0.49;100.00
22862;BME280;11598;50.652;6.172;2023-01-27T18:26:16;97330.31;;;-0.52;100.00
22862;BME280;11598;50.652;6.172;2023-01-27T18:36:20;97344.84;;;-0.56;100.00
22862;BME280;11598;50.652;6.172;2023-01-27T18:46:21;97341.47;;;-0.56;100.00
22862;BME280;11598;50.652;6.172;2023-01-27T18:56:21;97350.84;;;-0.58;100.00
22862;BME280;11598;50.652;6.172;2023-01-27T19:06:22;97351.69;;;-0.59;100.00
22862;BME280;11598;50.652;6.172;2023-01-27T19:16:22;97355.09;;;-0.59;100.00
22862;BME280;11598;50.652;6.172;2023-01-27T19:26:25;97347.44;;;-0.59;100.00
22862;BME280;11598;50.652;6.172;2023-01-27T19:36:34;97348.31;;;-0.58;100.00
22862;BME280;11598;50.652;6.172;2023-01-27T19:46:37;97355.97;;;-0.58;100.00
22862;BME280;11598;50.652;6.172;2023-01-27T19:56:38;97360.19;;;-0.57;100.00
22862;BME280;11598;50.652;6.172;2023-01-27T20:06:40;97366.16;;;-0.58;100.00
22862;BME280;11598;50.652;6.172;2023-01-27T20:16:41;97373.81;;;-0.58;100.00
22862;BME280;11598;50.652;6.172;2023-01-27T20:26:41;97377.28;;;-0.62;100.00
22862;BME280;11598;50.652;6.172;2023-01-27T20:36:42;97373.06;;;-0.65;100.00
22862;BME280;11598;50.652;6.172;2023-01-27T20:46:42;97376.47;;;-0.65;100.00
22862;BME280;11598;50.652;6.172;2023-01-27T20:56:43;97370.50;;;-0.65;100.00
22862;BME280;11598;50.652;6.172;2023-01-27T21:06:43;97378.16;;;-0.65;100.00
22862;BME280;11598;50.652;6.172;2023-01-27T21:16:43;97374.78;;;-0.67;100.00
22862;BME280;11598;50.652;6.172;2023-01-27T21:26:44;97396.94;;;-0.68;100.00
22862;BME280;11598;50.652;6.172;2023-01-27T21:36:44;97396.13;;;-0.71;100.00
22862;BME280;11598;50.652;6.172;2023-01-27T21:46:45;97388.53;;;-0.76;100.00
22862;BME280;11598;50.652;6.172;2023-01-27T21:56:45;97382.59;;;-0.78;100.00
22862;BME280;11598;50.652;6.172;2023-01-27T22:06:45;97383.53;;;-0.82;100.00
22862;BME280;11598;50.652;6.172;2023-01-27T22:16:48;97378.44;;;-0.82;100.00
22862;BME280;11598;50.652;6.172;2023-01-27T22:26:49;97375.88;;;-0.82;100.00
22862;BME280;11598;50.652;6.172;2023-01-27T22:36:49;97368.31;;;-0.90;100.00
22862;BME280;11598;50.652;6.172;2023-01-27T22:46:50;97370.94;;;-0.94;100.00
22862;BME280;11598;50.652;6.172;2023-01-27T22:56:51;97376.97;;;-0.98;100.00
22862;BME280;11598;50.652;6.172;2023-01-27T23:06:51;97380.41;;;-1.02;100.00
22862;BME280;11598;50.652;6.172;2023-01-27T23:16:52;97387.22;;;-1.03;100.00
22862;BME280;11598;50.652;6.172;2023-01-27T23:26:52;97397.41;;;-1.03;100.00
22862;BME280;11598;50.652;6.172;2023-01-27T23:36:53;97388.06;;;-1.02;100.00
22862;BME280;11598;50.652;6.172;2023-01-27T23:46:53;97392.38;;;-1.09;100.00
22862;BME280;11598;50.652;6.172;2023-01-27T23:56:53;97387.34;;;-1.12;100.00
